createdAt,value
2018-01-24T00:01:23.453Z,27.45
2018-01-24T00:03:51.066Z,25.90
2018-01-24T00:06:19.218Z,27.40
2018-01-24T00:08:46.876Z,24.20
2018-01-24T00:11:14.492Z,24.73
2018-01-24T00:13:43.102Z,26.53
2018-01-24T00:16:11.521Z,24.60
2018-01-24T00:18:39.140Z,23.87
2018-01-24T00:21:06.789Z,24.17
2018-01-24T00:23:34.409Z,23.93
2018-01-24T00:26:02.835Z,23.73
2018-01-24T00:28:30.477Z,23.33
2018-01-24T00:30:58.137Z,24.60
2018-01-24T00:33:25.754Z,18.37
2018-01-24T00:35:53.404Z,22.00
2018-01-24T00:38:21.097Z,20.08
2018-01-24T00:40:48.758Z,22.27
2018-01-24T00:43:17.150Z,24.67
2018-01-24T00:45:44.858Z,20.07
2018-01-24T00:48:13.102Z,12.73
2018-01-24T00:50:40.754Z,17.58
2018-01-24T00:53:08.372Z,16.87
2018-01-24T00:55:36.583Z,18.77
2018-01-24T00:58:04.235Z,16.83
2018-01-24T01:00:31.895Z,17.90
2018-01-24T01:02:59.549Z,19.65
2018-01-24T01:05:27.213Z,15.70
2018-01-24T01:07:55.096Z,17.00
2018-01-24T01:10:22.717Z,16.62
2018-01-24T01:12:51.094Z,17.27
2018-01-24T01:15:18.745Z,16.92
2018-01-24T01:17:46.398Z,16.77
2018-01-24T01:20:14.077Z,16.53
2018-01-24T01:22:41.693Z,18.17
2018-01-24T01:25:09.308Z,17.27
2018-01-24T01:27:36.960Z,15.57
2018-01-24T01:30:04.621Z,15.70
2018-01-24T01:32:32.897Z,17.23
2018-01-24T01:35:00.553Z,20.50
2018-01-24T01:37:28.169Z,17.47
2018-01-24T01:39:56.129Z,17.93
2018-01-24T01:42:23.743Z,22.20
2018-01-24T01:44:52.171Z,19.97
2018-01-24T01:47:19.977Z,17.83
2018-01-24T01:49:47.653Z,17.57
2018-01-24T01:52:16.032Z,18.17
2018-01-24T01:54:43.662Z,18.90
2018-01-24T01:57:11.517Z,15.73
2018-01-24T01:59:39.184Z,18.10
2018-01-24T02:02:07.011Z,16.57
2018-01-24T02:04:34.678Z,19.02
2018-01-24T02:07:02.339Z,21.17
2018-01-24T02:09:30.001Z,18.37
2018-01-24T02:11:57.612Z,18.43
2018-01-24T02:14:25.271Z,21.30
2018-01-24T02:16:53.651Z,23.58
2018-01-24T02:19:22.097Z,21.00
2018-01-24T02:21:49.720Z,19.27
2018-01-24T02:24:17.385Z,19.97
2018-01-24T02:26:45.037Z,20.67
2018-01-24T02:29:12.654Z,19.10
2018-01-24T02:31:41.424Z,21.05
2018-01-24T02:34:09.042Z,19.47
2018-01-24T02:36:37.390Z,19.10
2018-01-24T02:39:16.877Z,19.00
2018-01-24T02:41:44.536Z,18.27
2018-01-24T02:44:12.152Z,18.83
2018-01-24T02:46:39.812Z,20.08
2018-01-24T02:49:07.426Z,15.67
2018-01-24T02:51:35.056Z,14.60
2018-01-24T02:54:03.264Z,17.43
2018-01-24T02:56:31.248Z,17.55
2018-01-24T02:58:59.183Z,16.62
2018-01-24T03:01:28.902Z,15.68
2018-01-24T03:03:56.552Z,17.60
2018-01-24T03:06:24.520Z,17.90
2018-01-24T03:08:52.187Z,19.03
2018-01-24T03:11:19.817Z,15.15
2018-01-24T03:13:47.482Z,17.43
2018-01-24T03:16:15.717Z,24.00
2018-01-24T03:18:43.933Z,18.97
2018-01-24T03:21:11.729Z,21.43
2018-01-24T03:23:39.348Z,19.07
2018-01-24T03:26:07.001Z,25.42
2018-01-24T03:28:34.614Z,21.17
2018-01-24T03:31:03.791Z,21.90
2018-01-24T03:33:31.404Z,18.30
2018-01-24T03:35:59.056Z,19.08
2018-01-24T03:38:27.660Z,21.60
2018-01-24T03:40:55.381Z,19.13
2018-01-24T03:43:23.049Z,17.80
2018-01-24T03:45:51.485Z,17.93
2018-01-24T03:48:19.336Z,16.40
2018-01-24T03:50:46.973Z,15.20
2018-01-24T03:53:14.585Z,14.60
2018-01-24T03:55:42.238Z,15.70
2018-01-24T03:58:09.862Z,17.60
2018-01-24T04:00:37.530Z,13.53
2018-01-24T04:03:05.200Z,13.63
2018-01-24T04:05:32.813Z,12.53
2018-01-24T04:08:00.469Z,12.17
2018-01-24T04:10:28.121Z,10.90
2018-01-24T04:13:07.521Z,11.67
2018-01-24T04:15:36.061Z,14.27
2018-01-24T04:18:04.708Z,11.40
2018-01-24T04:20:32.534Z,12.10
2018-01-24T04:23:01.046Z,13.95
2018-01-24T04:25:28.717Z,14.10
2018-01-24T04:27:56.928Z,14.93
2018-01-24T04:30:24.556Z,15.82
2018-01-24T04:32:53.219Z,16.47
2018-01-24T04:35:20.988Z,15.93
2018-01-24T04:37:48.709Z,17.33
2018-01-24T04:40:16.357Z,22.07
2018-01-24T04:42:44.012Z,16.05
2018-01-24T04:45:11.860Z,21.70
2018-01-24T04:47:39.520Z,17.47
2018-01-24T04:50:07.149Z,20.20
2018-01-24T04:52:35.015Z,22.17
2018-01-24T04:55:02.633Z,23.00
2018-01-24T04:57:30.397Z,20.98
2018-01-24T04:59:58.029Z,23.98
2018-01-24T05:02:25.702Z,26.13
2018-01-24T05:04:54.354Z,26.87
2018-01-24T05:07:22.022Z,31.02
2018-01-24T05:09:49.689Z,26.57
2018-01-24T05:12:17.423Z,22.50
2018-01-24T05:14:45.105Z,23.25
2018-01-24T05:17:12.737Z,25.77
2018-01-24T05:19:40.481Z,27.23
2018-01-24T05:22:08.112Z,28.38
2018-01-24T05:24:36.640Z,26.47
2018-01-24T05:27:04.529Z,25.98
2018-01-24T05:29:32.956Z,24.85
2018-01-24T05:32:00.683Z,30.08
2018-01-24T05:34:28.434Z,33.50
2018-01-24T05:36:56.049Z,26.57
2018-01-24T05:39:23.700Z,27.47
2018-01-24T05:41:51.664Z,24.87
2018-01-24T05:44:19.570Z,23.10
2018-01-24T05:46:47.216Z,24.35
2018-01-24T05:49:14.838Z,24.00
2018-01-24T05:51:43.281Z,25.33
2018-01-24T05:54:10.941Z,23.73
2018-01-24T05:56:38.600Z,29.10
2018-01-24T05:59:06.364Z,29.40
2018-01-24T06:01:34.016Z,25.80
2018-01-24T06:04:01.673Z,28.50
2018-01-24T06:06:29.316Z,32.08
2018-01-24T06:08:57.196Z,32.33
2018-01-24T06:11:24.810Z,28.92
2018-01-24T06:13:52.644Z,30.92
2018-01-24T06:16:20.966Z,29.17
2018-01-24T06:18:48.634Z,25.97
2018-01-24T06:21:16.357Z,25.47
2018-01-24T06:23:44.590Z,28.33
2018-01-24T06:26:12.241Z,32.00
2018-01-24T06:28:39.863Z,30.08
2018-01-24T06:31:08.310Z,25.67
2018-01-24T06:33:36.749Z,27.58
2018-01-24T06:36:05.039Z,25.92
2018-01-24T06:38:37.576Z,26.47
2018-01-24T06:41:11.043Z,27.07
2018-01-24T06:43:39.048Z,23.87
2018-01-24T06:46:06.852Z,26.87
2018-01-24T06:48:34.616Z,25.10
2018-01-24T06:51:02.599Z,29.73
2018-01-24T06:53:30.443Z,30.30
2018-01-24T06:55:58.063Z,29.37
2018-01-24T06:58:25.744Z,26.40
2018-01-24T07:00:53.385Z,33.63
2018-01-24T07:03:21.016Z,26.40
2018-01-24T07:05:48.671Z,32.43
2018-01-24T07:08:17.277Z,25.33
2018-01-24T07:10:45.692Z,29.73
2018-01-24T07:13:25.755Z,28.60
2018-01-24T07:15:53.413Z,31.62
2018-01-24T07:18:21.192Z,20.60
2018-01-24T07:20:49.453Z,28.90
2018-01-24T07:23:17.337Z,30.60
2018-01-24T07:25:44.949Z,29.27
2018-01-24T07:28:12.602Z,29.05
2018-01-24T07:30:40.216Z,23.97
2018-01-24T07:33:08.064Z,26.80
2018-01-24T07:35:35.847Z,26.23
2018-01-24T07:38:03.689Z,24.27
2018-01-24T07:40:31.317Z,23.70
2018-01-24T07:42:58.999Z,21.30
2018-01-24T07:45:26.843Z,23.85
2018-01-24T07:47:54.646Z,21.65
2018-01-24T07:50:22.262Z,22.20
2018-01-24T07:52:49.930Z,24.43
2018-01-24T07:55:17.722Z,22.62
2018-01-24T07:57:45.388Z,24.00
2018-01-24T08:00:13.004Z,21.90
2018-01-24T08:02:40.669Z,23.10
2018-01-24T08:05:08.295Z,25.37
2018-01-24T08:07:36.890Z,26.30
2018-01-24T08:10:04.512Z,24.00
2018-01-24T08:12:32.150Z,27.60
2018-01-24T08:14:59.815Z,21.58
2018-01-24T08:17:27.429Z,25.00
2018-01-24T08:19:55.277Z,24.35
2018-01-24T08:22:22.894Z,21.50
2018-01-24T08:24:50.551Z,21.45
2018-01-24T08:27:18.175Z,20.80
2018-01-24T08:29:45.833Z,24.10
2018-01-24T08:32:14.271Z,20.92
2018-01-24T08:34:42.153Z,21.40
2018-01-24T08:37:09.829Z,20.50
2018-01-24T08:39:37.451Z,21.60
2018-01-24T08:42:05.076Z,22.13
2018-01-24T08:44:32.746Z,18.92
2018-01-24T08:47:00.432Z,18.73
2018-01-24T08:49:28.096Z,22.53
2018-01-24T08:51:55.722Z,21.03
2018-01-24T08:54:23.383Z,19.30
2018-01-24T08:56:51.066Z,19.83
2018-01-24T08:59:18.724Z,19.77
2018-01-24T09:01:46.401Z,17.30
2018-01-24T09:04:14.065Z,19.33
2018-01-24T09:06:41.689Z,19.27
2018-01-24T09:09:09.359Z,18.30
2018-01-24T09:11:36.984Z,18.43
2018-01-24T09:14:05.210Z,18.70
2018-01-24T09:16:32.869Z,17.58
2018-01-24T09:19:00.492Z,16.90
2018-01-24T09:21:28.148Z,17.83
2018-01-24T09:23:56.573Z,17.85
2018-01-24T09:26:24.638Z,19.13
2018-01-24T09:28:52.518Z,18.97
2018-01-24T09:31:20.440Z,17.23
2018-01-24T09:33:48.861Z,17.80
2018-01-24T09:36:16.529Z,19.47
2018-01-24T09:38:44.189Z,18.07
2018-01-24T09:41:11.811Z,19.10
2018-01-24T09:43:39.464Z,18.30
2018-01-24T09:46:07.087Z,17.77
2018-01-24T09:48:34.762Z,17.10
2018-01-24T09:51:03.150Z,17.53
2018-01-24T09:53:30.781Z,17.48
2018-01-24T09:55:58.630Z,16.00
2018-01-24T09:58:26.249Z,17.33
2018-01-24T10:00:53.929Z,16.42
2018-01-24T10:03:21.558Z,16.50
2018-01-24T10:05:49.212Z,16.07
2018-01-24T10:08:16.860Z,19.20
2018-01-24T10:10:44.575Z,16.93
2018-01-24T10:13:12.197Z,15.80
2018-01-24T10:15:40.021Z,17.17
2018-01-24T10:18:07.645Z,16.85
2018-01-24T10:20:36.781Z,17.20
2018-01-24T10:23:04.438Z,17.65
2018-01-24T10:25:32.074Z,16.77
2018-01-24T10:28:00.063Z,16.98
2018-01-24T10:30:28.293Z,18.37
2018-01-24T10:32:55.953Z,15.05
2018-01-24T10:35:23.568Z,15.17
2018-01-24T10:37:51.261Z,14.30
2018-01-24T10:40:18.878Z,16.77
2018-01-24T10:42:46.858Z,14.53
2018-01-24T10:45:14.481Z,16.50
2018-01-24T10:47:42.172Z,13.83
2018-01-24T10:50:09.801Z,13.88
2018-01-24T10:52:37.424Z,15.68
2018-01-24T10:55:05.851Z,15.57
2018-01-24T10:57:33.521Z,12.47
2018-01-24T11:00:01.873Z,12.33
2018-01-24T11:02:30.063Z,12.20
2018-01-24T11:04:57.721Z,12.07
2018-01-24T11:07:25.940Z,12.63
2018-01-24T11:09:53.549Z,9.53
2018-01-24T11:12:21.210Z,11.10
2018-01-24T11:14:48.870Z,10.20
2018-01-24T11:17:16.504Z,9.27
2018-01-24T11:19:44.153Z,8.33
2018-01-24T11:22:11.841Z,9.27
2018-01-24T11:24:39.489Z,8.43
2018-01-24T11:27:07.109Z,9.13
2018-01-24T11:29:35.124Z,7.77
2018-01-24T11:32:02.750Z,7.87
2018-01-24T11:34:31.429Z,7.60
2018-01-24T11:36:59.058Z,7.32
2018-01-24T11:39:26.674Z,7.17
2018-01-24T11:41:54.338Z,7.32
2018-01-24T11:44:21.973Z,7.40
2018-01-24T11:46:51.112Z,8.00
2018-01-24T11:49:18.738Z,10.03
2018-01-24T11:51:46.402Z,7.67
2018-01-24T11:54:14.021Z,7.57
2018-01-24T11:56:41.759Z,6.30
2018-01-24T11:59:09.379Z,6.83
2018-01-24T12:01:37.196Z,6.33
2018-01-24T12:04:05.163Z,6.10
2018-01-24T12:06:32.776Z,5.60
2018-01-24T12:09:00.393Z,5.60
2018-01-24T12:11:29.567Z,6.43
2018-01-24T12:13:57.242Z,5.60
2018-01-24T12:16:24.870Z,6.27
2018-01-24T12:18:52.521Z,6.00
2018-01-24T12:21:20.777Z,4.87
2018-01-24T12:23:48.448Z,4.93
2018-01-24T12:26:16.060Z,5.00
2018-01-24T12:28:43.713Z,5.30
2018-01-24T12:31:11.933Z,5.37
2018-01-24T12:33:40.273Z,5.00
2018-01-24T12:36:07.936Z,4.57
2018-01-24T12:38:35.602Z,4.22
2018-01-24T12:41:03.331Z,4.50
2018-01-24T12:43:30.949Z,4.27
2018-01-24T12:45:58.566Z,4.00
2018-01-24T12:48:26.232Z,3.42
2018-01-24T12:50:53.924Z,3.53
2018-01-24T12:53:21.561Z,3.33
2018-01-24T12:55:49.181Z,3.90
2018-01-24T12:58:28.733Z,3.20
2018-01-24T13:00:56.353Z,3.67
2018-01-24T13:03:24.124Z,3.40
2018-01-24T13:05:51.736Z,3.17
2018-01-24T13:08:19.397Z,3.20
2018-01-24T13:10:47.013Z,3.00
2018-01-24T13:13:14.921Z,3.40
2018-01-24T13:15:42.676Z,3.20
2018-01-24T13:18:10.346Z,2.70
2018-01-24T13:20:37.992Z,3.07
2018-01-24T13:23:05.661Z,3.37
2018-01-24T13:25:33.453Z,3.45
2018-01-24T13:28:01.842Z,2.37
2018-01-24T13:30:31.174Z,3.20
2018-01-24T13:32:58.786Z,3.20
2018-01-24T13:35:26.622Z,3.17
2018-01-24T13:37:54.283Z,2.35
2018-01-24T13:40:21.904Z,3.10
2018-01-24T13:42:49.602Z,2.60
2018-01-24T13:45:17.221Z,2.67
2018-01-24T13:47:44.873Z,2.60
2018-01-24T13:50:12.489Z,2.75
2018-01-24T13:52:40.169Z,2.67
2018-01-24T13:55:07.789Z,2.80
2018-01-24T13:57:35.404Z,3.10
2018-01-24T14:00:03.071Z,2.37
2018-01-24T14:02:31.401Z,2.20
2018-01-24T14:04:59.033Z,2.30
2018-01-24T14:07:26.645Z,2.50
2018-01-24T14:09:55.297Z,3.00
2018-01-24T14:12:23.865Z,2.42
2018-01-24T14:14:51.536Z,2.85
2018-01-24T14:17:19.204Z,2.40
2018-01-24T14:19:48.105Z,2.07
2018-01-24T14:22:15.724Z,2.62
2018-01-24T14:24:43.745Z,2.55
2018-01-24T14:27:12.141Z,2.37
2018-01-24T14:29:40.523Z,2.53
2018-01-24T14:32:08.178Z,2.33
2018-01-24T14:34:35.838Z,2.30
2018-01-24T14:37:03.456Z,2.70
2018-01-24T14:39:31.221Z,2.93
2018-01-24T14:41:58.878Z,2.90
2018-01-24T14:44:26.490Z,2.83
2018-01-24T14:46:54.132Z,2.80
2018-01-24T14:49:21.961Z,2.90
2018-01-24T14:51:49.798Z,2.83
2018-01-24T14:54:17.430Z,2.70
2018-01-24T14:56:45.066Z,2.00
2018-01-24T14:59:12.726Z,2.53
2018-01-24T15:01:40.958Z,2.50
2018-01-24T15:04:08.620Z,2.40
2018-01-24T15:06:36.580Z,2.40
2018-01-24T15:09:04.327Z,2.57
2018-01-24T15:11:31.941Z,2.60
2018-01-24T15:14:00.334Z,2.60
2018-01-24T15:16:27.989Z,3.00
2018-01-24T15:18:55.643Z,2.40
2018-01-24T15:21:23.297Z,2.20
2018-01-24T15:23:50.945Z,2.37
2018-01-24T15:26:18.591Z,2.22
2018-01-24T15:28:46.202Z,2.40
2018-01-24T15:31:14.627Z,2.43
2018-01-24T15:33:42.277Z,2.70
2018-01-24T15:36:09.933Z,2.13
2018-01-24T15:38:37.611Z,2.78
2018-01-24T15:41:05.267Z,3.00
2018-01-24T15:43:32.889Z,2.33
2018-01-24T15:46:00.594Z,2.58
2018-01-24T15:48:28.252Z,2.30
2018-01-24T15:50:55.885Z,2.20
2018-01-24T15:53:23.536Z,2.43
2018-01-24T15:55:51.909Z,2.57
2018-01-24T15:58:20.336Z,2.40
2018-01-24T16:00:48.005Z,2.10
2018-01-24T16:03:16.361Z,2.40
2018-01-24T16:05:43.982Z,2.27
2018-01-24T16:08:12.610Z,2.28
2018-01-24T16:10:40.681Z,2.40
2018-01-24T16:13:08.300Z,2.50
2018-01-24T16:15:35.922Z,2.30
2018-01-24T16:18:03.624Z,2.53
2018-01-24T16:20:31.610Z,2.53
2018-01-24T16:22:59.226Z,2.42
2018-01-24T16:25:27.796Z,2.25
2018-01-24T16:27:55.408Z,2.75
2018-01-24T16:30:23.793Z,2.50
2018-01-24T16:32:51.412Z,2.87
2018-01-24T16:35:19.793Z,2.25
2018-01-24T16:37:48.200Z,2.55
2018-01-24T16:40:15.878Z,2.45
2018-01-24T16:42:43.661Z,2.93
2018-01-24T16:45:11.346Z,2.23
2018-01-24T16:47:39.004Z,2.73
2018-01-24T16:50:06.612Z,2.70
2018-01-24T16:52:34.233Z,3.00
2018-01-24T16:55:01.900Z,4.10
2018-01-24T16:57:29.522Z,2.67
2018-01-24T16:59:57.174Z,2.50
2018-01-24T17:02:24.825Z,2.87
2018-01-24T17:04:52.473Z,2.90
2018-01-24T17:07:20.085Z,3.20
2018-01-24T17:09:48.504Z,2.40
2018-01-24T17:12:16.121Z,2.67
2018-01-24T17:14:44.233Z,2.87
2018-01-24T17:17:13.041Z,3.13
2018-01-24T17:19:40.773Z,2.80
2018-01-24T17:22:08.418Z,2.73
2018-01-24T17:24:36.253Z,2.33
2018-01-24T17:27:03.885Z,2.37
2018-01-24T17:29:31.536Z,2.60
2018-01-24T17:31:59.225Z,2.80
2018-01-24T17:34:27.067Z,2.35
2018-01-24T17:37:00.055Z,2.50
2018-01-24T17:39:29.724Z,2.37
2018-01-24T17:41:58.240Z,2.43
2018-01-24T17:44:26.059Z,3.47
2018-01-24T17:46:54.492Z,2.80
2018-01-24T17:49:22.250Z,9.30
2018-01-24T17:51:49.905Z,2.33
2018-01-24T17:54:17.561Z,2.57
2018-01-24T17:56:45.212Z,2.57
2018-01-24T17:59:13.555Z,2.50
2018-01-24T18:01:42.005Z,4.45
2018-01-24T18:04:09.621Z,3.30
2018-01-24T18:06:37.876Z,2.83
2018-01-24T18:09:05.941Z,2.80
2018-01-24T18:11:34.317Z,2.37
2018-01-24T18:14:02.033Z,2.25
2018-01-24T18:16:29.681Z,4.40
2018-01-24T18:18:57.477Z,2.20
2018-01-24T18:21:25.318Z,1.95
2018-01-24T18:23:52.977Z,2.97
2018-01-24T18:26:20.593Z,2.25
2018-01-24T18:28:48.613Z,2.20
2018-01-24T18:31:16.238Z,1.80
2018-01-24T18:33:43.900Z,2.75
2018-01-24T18:36:11.513Z,2.33
2018-01-24T18:38:39.169Z,2.50
2018-01-24T18:41:07.038Z,2.50
2018-01-24T18:43:34.663Z,2.57
2018-01-24T18:46:02.553Z,2.57
2018-01-24T18:48:31.553Z,2.50
2018-01-24T18:50:59.907Z,2.47
2018-01-24T18:53:28.078Z,2.00
2018-01-24T18:55:58.160Z,2.30
2018-01-24T18:58:27.096Z,2.10
2018-01-24T19:00:58.130Z,2.67
2018-01-24T19:03:25.792Z,2.33
2018-01-24T19:05:53.638Z,2.40
2018-01-24T19:08:22.212Z,2.60
2018-01-24T19:10:50.451Z,2.80
2018-01-24T19:13:18.097Z,2.50
2018-01-24T19:15:45.932Z,2.23
2018-01-24T19:18:13.570Z,2.37
2018-01-24T19:20:41.417Z,2.57
2018-01-24T19:23:09.658Z,2.30
2018-01-24T19:25:37.601Z,2.20
2018-01-24T19:28:05.793Z,2.93
2018-01-24T19:30:34.632Z,2.73
2018-01-24T19:33:03.321Z,2.70
2018-01-24T19:35:31.284Z,2.13
2018-01-24T19:37:59.792Z,2.33
2018-01-24T19:40:27.799Z,2.50
2018-01-24T19:42:59.299Z,2.23
2018-01-24T19:45:27.521Z,2.30
2018-01-24T19:47:55.189Z,2.40
2018-01-24T19:50:24.385Z,2.43
2018-01-24T19:52:52.821Z,2.65
2018-01-24T19:55:20.497Z,2.87
2018-01-24T19:57:48.157Z,2.00
2018-01-24T20:00:15.821Z,2.40
2018-01-24T20:02:44.294Z,2.20
2018-01-24T20:05:12.251Z,3.27
2018-01-24T20:07:40.479Z,2.30
2018-01-24T20:10:08.864Z,1.80
2018-01-24T20:12:36.530Z,2.77
2018-01-24T20:15:04.341Z,2.25
2018-01-24T20:17:31.980Z,1.85
2018-01-24T20:20:00.052Z,2.03
2018-01-24T20:22:27.712Z,2.33
2018-01-24T20:24:55.356Z,2.28
2018-01-24T20:27:23.322Z,2.70
2018-01-24T20:29:51.461Z,2.20
2018-01-24T20:32:19.892Z,2.33
2018-01-24T20:34:48.205Z,2.30
2018-01-24T20:37:17.891Z,2.40
2018-01-24T20:39:45.594Z,1.83
2018-01-24T20:42:14.173Z,1.73
2018-01-24T20:44:43.762Z,2.07
2018-01-24T20:47:12.419Z,3.13
2018-01-24T20:49:40.617Z,2.27
2018-01-24T20:52:08.230Z,1.70
2018-01-24T20:54:36.110Z,1.97
2018-01-24T20:57:04.309Z,2.30
2018-01-24T20:59:31.960Z,1.87
2018-01-24T21:01:59.645Z,2.17
2018-01-24T21:04:28.030Z,1.85
2018-01-24T21:06:56.455Z,1.83
2018-01-24T21:09:24.311Z,1.30
2018-01-24T21:11:51.964Z,1.77
2018-01-24T21:14:20.056Z,1.70
2018-01-24T21:16:47.677Z,1.70
2018-01-24T21:19:15.952Z,1.37
2018-01-24T21:21:45.166Z,1.73
2018-01-24T21:24:12.828Z,1.70
2018-01-24T21:26:40.510Z,1.23
2018-01-24T21:29:29.700Z,1.80
2018-01-24T21:32:12.038Z,3.10
2018-01-24T21:34:51.533Z,2.60
2018-01-24T21:37:19.185Z,1.20
2018-01-24T21:39:46.828Z,2.20
2018-01-24T21:42:14.444Z,1.45
2018-01-24T21:44:42.328Z,2.30
2018-01-24T21:47:09.970Z,1.37
2018-01-24T21:49:37.879Z,1.30
2018-01-24T21:52:05.530Z,1.20
2018-01-24T21:54:33.316Z,1.23
2018-01-24T21:57:00.962Z,1.57
2018-01-24T21:59:28.663Z,1.17
2018-01-24T22:01:56.696Z,1.23
2018-01-24T22:04:24.478Z,1.10
2018-01-24T22:06:53.142Z,1.27
2018-01-24T22:09:20.909Z,1.40
2018-01-24T22:11:48.977Z,1.45
2018-01-24T22:14:16.738Z,1.23
2018-01-24T22:16:44.501Z,1.62
2018-01-24T22:19:12.158Z,1.80
2018-01-24T22:21:39.940Z,2.30
2018-01-24T22:24:07.715Z,1.77
2018-01-24T22:26:35.353Z,1.55
2018-01-24T22:29:03.236Z,1.87
2018-01-24T22:31:30.838Z,1.67
2018-01-24T22:33:58.477Z,1.60
2018-01-24T22:36:26.092Z,1.47
2018-01-24T22:38:53.766Z,1.17
2018-01-24T22:41:21.377Z,0.95
2018-01-24T22:43:49.017Z,0.90
2018-01-24T22:46:17.425Z,1.33
2018-01-24T22:48:48.625Z,1.23
2018-01-24T22:51:21.808Z,2.70
2018-01-24T22:53:49.557Z,0.70
2018-01-24T22:56:17.197Z,0.93
2018-01-24T22:58:44.858Z,0.70
2018-01-24T23:01:12.464Z,0.80
2018-01-24T23:03:40.942Z,0.85
2018-01-24T23:06:08.550Z,1.00
2018-01-24T23:08:36.205Z,0.63
2018-01-24T23:11:03.983Z,0.57
2018-01-24T23:13:32.195Z,1.00
2018-01-24T23:15:59.837Z,0.60
2018-01-24T23:18:27.643Z,0.60
2018-01-24T23:20:55.293Z,0.40
2018-01-24T23:23:23.394Z,0.40
2018-01-24T23:25:51.832Z,0.50
2018-01-24T23:28:20.271Z,0.53
2018-01-24T23:30:48.474Z,0.50
2018-01-24T23:33:16.141Z,0.55
2018-01-24T23:35:43.780Z,1.12
2018-01-24T23:38:11.414Z,1.02
2018-01-24T23:40:39.056Z,0.40
2018-01-24T23:43:06.757Z,0.77
2018-01-24T23:45:34.401Z,0.50
2018-01-24T23:48:02.033Z,0.73
2018-01-24T23:50:29.685Z,1.03
2018-01-24T23:52:57.296Z,0.63
2018-01-24T23:55:24.944Z,0.67
2018-01-24T23:57:53.045Z,0.73
